Terminal Aerodrome Forecast
Issued by NWS

Home | Current Version | Previous Version | Text Only | Print | Product List | Glossary On
Versions: 1 2 3 4 5 6 7 8 9 10 11 12 13 14 15 16 17 18 19 20 21 22 23
000
FTUS43 KPAH 151937 AAA
TAFCGI
TAF AMD
KCGI 151937Z 1520/1618 VRB04KT P6SM SCT025 BKN100
      TEMPO 1520/1523 5SM -SHRA OVC025
     FM152300 12006KT P6SM VCSH OVC020
     FM160500 VRB03KT 5SM -SHRA BR OVC009
     FM161100 VRB03KT 3SM BR OVC005
     FM161500 VRB04KT P6SM SCT005 BKN015=

USA.gov is the U.S. government's official web portal to all federal, state and local government web resources and services.